Ware, Massachusetts
Current Conditions -  °F | °C
As of 3:58 PM on Friday 19 Dec 2014 (Local Time) from KCEF Reporting Station
Overcast Overcast  
Wind Chill: 26°   Ceiling: 3500
Heat Index: 33°   Visibility: 10mi
Dew Point: 21°   Wind: 9mph
Humidity: 60%   Direction: 330°NNW
Pressure: 30.02"   Gusts: NA
Location:  42.26°N, 72.24°W
Report Text: KCEF 192058Z AUTO 33008KT 10SM OVC035 01/M06 A3002 RMK AO2 SLP174 T00071063 52017
Loading
Personal Weather Stations






























Interactive Weather Map New forecast layout! Learn more

10-Day Weather Forecast

Advertisements
Track Severe Weather on mobile